To NAV CANADA Home Page Login to a new session Search on AWWS site Feedback and Comments Disclaimer Vers la page française équivalente Tips FAQ What's new on the site To the Forecasts and Observations / NOTAM section To "File a Flight Plan" website Publications and other links Update of the User's profile FIC Telephone Numbers My Weather Data Folder Route Weather Data Regional Weather Data Local Weather Data To the Forecasts and Observations / NOTAM section
Request Generated 04/30/2017 at 05:11:39 UTC . Weather information available at that time is displayed.

METAR/TAF

FREDERICTON INTL/NB    (show WxCam)

METAR CYFC 300500Z AUTO 32018KT 9SM OVC048 06/M02 A2999 RMK SLP157=
SPECI CYFC 300455Z AUTO 32017KT 9SM OVC048 06/M02 A2999 RMK SLP159=
METAR CYFC 300400Z AUTO 31007KT 9SM BKN050 07/M02 A2998 RMK SLP153=
METAR CYFC 300300Z AUTO 30011G19KT 260V330 9SM CLR 07/M02 A2994 RMK
PRESRR SLP140=

TAF AMD CYFC 300047Z 3000/3012 33025G35KT P6SM BKN100
BECMG 3001/3003 32012G22KT
FM300300 30012KT P6SM SCT050
RMK FCST BASED ON AUTO OBS. NXT FCST BY 300600Z=
Your time UTC time
Weather data provided by Environment Canada and NAV CANADA